Terminal Aerodrome Forecast
Issued by NWS

Home | Current Version | Previous Version | Text Only | Print | Product List | Glossary On
Versions: 1 2 3 4 5 6 7 8 9 10 11
344
FTUS42 TJSJ 130530
TAFIST
TAF
TIST 130530Z 1306/1406 09008KT P6SM SCT025
     FM131300 14010KT P6SM FEW030 FEW050
     FM132300 09008KT P6SM SCT025=

USA.gov is the U.S. government's official web portal to all federal, state and local government web resources and services.